Time;durP1;ratioP1;P1;durP2;ratioP2;P2;SDS_P1;SDS_P2;PMS_P1;PMS_P2;Temp;Humidity;BMP_temperature;BMP_pressure;BME280_temperature;BME280_humidity;BME280_pressure;Samples;Min_cycle;Max_cycle;Signal;HPM_P1;HPM_P2
2021/12/13 00:03:25;;;;;;;1999.90;999.90;;;;;;;7.70;81.42;101871.38;15755156;28;20101;-62
2021/12/13 00:11:22;;;;;;;1999.90;999.90;;;;;;;7.82;81.17;101880.25;15749560;28;20131;-64
2021/12/13 00:19:05;;;;;;;1999.90;999.90;;;;;;;7.98;80.65;101883.75;15776171;28;20135;-64
2021/12/13 00:26:44;;;;;;;1999.90;999.90;;;;;;;8.06;80.52;101890.66;15752320;28;20036;-63
2021/12/13 00:34:44;;;;;;;1999.90;999.90;;;;;;;8.05;80.41;101892.59;15746722;28;20411;-63
2021/12/13 00:42:17;;;;;;;1999.90;999.90;;;;;;;7.93;81.17;101888.53;15760456;28;20400;-64
2021/12/13 00:49:55;;;;;;;1999.90;999.90;;;;;;;7.84;81.47;101888.28;15751102;28;20452;-63
2021/12/13 00:57:41;;;;;;;1999.90;999.90;;;;;;;7.91;81.25;101899.06;15783460;28;20083;-65
2021/12/13 01:05:26;;;;;;;1999.90;999.90;;;;;;;7.74;81.48;101905.84;15775337;28;20049;-65
2021/12/13 01:13:03;;;;;;;1999.90;999.90;;;;;;;7.63;81.83;101920.06;15783256;28;20044;-66
2021/12/13 01:20:56;;;;;;;1999.90;999.90;;;;;;;7.77;81.42;101929.44;15767202;28;20047;-64
2021/12/13 01:28:51;;;;;;;1999.90;999.90;;;;;;;7.60;81.46;101931.72;15784866;28;20606;-65
2021/12/13 01:36:29;;;;;;;1999.90;999.90;;;;;;;7.61;81.44;101938.94;15744991;28;20059;-64
2021/12/13 01:44:14;;;;;;;1999.90;999.90;;;;;;;7.68;82.04;101951.44;15766298;28;20037;-64
2021/12/13 01:51:51;;;;;;;1999.90;999.90;;;;;;;7.61;82.34;101953.69;15768628;28;20040;-64
2021/12/13 02:00:07;;;;;;;;;;;;;;;7.74;81.74;101969.75;15788363;28;20512;-64
2021/12/13 02:07:49;;;;;;;1999.90;999.90;;;;;;;7.70;82.06;101949.19;15808157;28;20015;-64
2021/12/13 02:23:17;;;;;;;1999.90;999.90;;;;;;;7.56;82.66;101947.31;15754969;28;20044;-65
2021/12/13 02:30:57;;;;;;;1999.90;999.90;;;;;;;7.65;82.85;101937.28;15782539;28;20056;-64
2021/12/13 02:38:31;;;;;;;1999.90;999.90;;;;;;;7.87;81.81;101953.56;15735993;28;20059;-64
2021/12/13 02:46:26;;;;;;;1999.90;999.90;;;;;;;7.93;81.03;101958.84;15793827;28;20497;-63
2021/12/13 02:54:04;;;;;;;1999.90;999.90;;;;;;;8.14;81.04;101959.56;15740789;28;20068;-63
2021/12/13 03:01:46;;;;;;;1999.90;999.90;;;;;;;7.94;81.45;101963.28;15774361;28;20049;-64
2021/12/13 03:09:31;;;;;;;1999.90;999.90;;;;;;;7.93;81.92;101963.56;15751350;28;20047;-64
2021/12/13 03:17:29;;;;;;;1999.90;999.90;;;;;;;7.93;81.75;101958.84;15740368;28;20040;-64
2021/12/13 03:25:12;;;;;;;1999.90;999.90;;;;;;;7.88;81.83;101958.84;15761838;28;20044;-63
2021/12/13 03:32:53;;;;;;;1999.90;999.90;;;;;;;7.90;81.61;101967.72;15762021;28;20054;-65
2021/12/13 03:40:31;;;;;;;1999.90;999.90;;;;;;;7.89;81.87;101974.41;15768624;28;20513;-64
2021/12/13 03:48:06;;;;;;;1999.90;999.90;;;;;;;7.95;81.70;101976.06;15740695;28;20391;-64
2021/12/13 03:56:09;;;;;;;1999.90;999.90;;;;;;;8.05;81.37;101976.00;15764938;28;20041;-63
2021/12/13 04:04:02;;;;;;;1999.90;999.90;;;;;;;8.05;81.47;101984.34;15775829;28;20066;-63
2021/12/13 04:11:45;;;;;;;1999.90;999.90;;;;;;;8.02;81.42;101990.50;15801185;28;20526;-64
2021/12/13 04:19:21;;;;;;;1999.90;999.90;;;;;;;8.02;81.82;101990.50;15773011;28;20040;-65
2021/12/13 04:27:00;;;;;;;1999.90;999.90;;;;;;;8.14;81.62;101995.72;15752904;28;20045;-64
2021/12/13 04:34:39;;;;;;;1999.90;999.90;;;;;;;8.13;81.40;102001.53;15772599;28;20079;-64
2021/12/13 04:42:17;;;;;;;1999.90;999.90;;;;;;;8.14;81.77;102003.22;15788877;28;20053;-65
2021/12/13 04:49:58;;;;;;;1999.90;999.90;;;;;;;8.26;81.33;102009.28;15763691;28;20456;-64
2021/12/13 04:57:54;;;;;;;1999.90;999.90;;;;;;;8.10;82.19;102002.94;15769531;28;20041;-63
2021/12/13 05:05:34;;;;;;;1999.90;999.90;;;;;;;8.07;82.43;102001.56;15770031;28;20105;-62
2021/12/13 05:13:20;;;;;;;1999.90;999.90;;;;;;;8.06;82.65;101996.31;15780607;28;20090;-63
2021/12/13 05:21:03;;;;;;;1999.90;999.90;;;;;;;8.07;82.28;102003.53;15776635;28;20043;-64
2021/12/13 05:28:46;;;;;;;1999.90;999.90;;;;;;;8.19;81.64;102022.66;15779421;28;20101;-64
2021/12/13 05:36:25;;;;;;;1999.90;999.90;;;;;;;8.23;81.83;102018.16;15746798;28;20036;-63
2021/12/13 05:44:04;;;;;;;1999.90;999.90;;;;;;;8.15;82.36;102018.78;15762977;28;20047;-64
2021/12/13 05:51:45;;;;;;;1999.90;999.90;;;;;;;8.39;81.06;102031.75;15787979;28;20456;-64
2021/12/13 05:59:27;;;;;;;1999.90;999.90;;;;;;;8.30;81.66;102043.72;15725347;28;20048;-63
2021/12/13 06:07:19;;;;;;;1999.90;999.90;;;;;;;8.42;80.83;102043.41;15760302;28;20040;-65
2021/12/13 06:15:29;;;;;;;1999.90;999.90;;;;;;;8.42;81.46;102048.97;15743068;28;20094;-64
2021/12/13 06:23:05;;;;;;;1999.90;999.90;;;;;;;8.22;82.19;102044.31;15758966;28;20048;-64
2021/12/13 06:30:42;;;;;;;1999.90;999.90;;;;;;;8.15;82.83;102055.75;15748736;28;20040;-65
2021/12/13 06:38:43;;;;;;;1999.90;999.90;;;;;;;8.17;82.74;102067.44;15765370;28;20502;-64
2021/12/13 06:46:32;;;;;;;1999.90;999.90;;;;;;;8.23;82.48;102077.44;15775191;28;20044;-64
2021/12/13 06:54:09;;;;;;;1999.90;999.90;;;;;;;8.24;82.59;102087.44;15725369;28;20052;-64
2021/12/13 07:02:02;;;;;;;1999.90;999.90;;;;;;;8.38;82.46;102105.19;15763451;28;20044;-64
2021/12/13 07:10:18;;;;;;;1999.90;999.90;;;;;;;8.33;82.25;102096.00;15780062;28;20048;-64
2021/12/13 07:18:10;;;;;;;1999.90;999.90;;;;;;;8.40;82.17;102104.91;15740306;28;20036;-63
2021/12/13 07:25:49;;;;;;;1999.90;999.90;;;;;;;8.42;82.20;102107.41;15722055;28;20586;-64
2021/12/13 07:33:35;;;;;;;1999.90;999.90;;;;;;;8.47;81.62;102124.09;15796416;28;20044;-63
2021/12/13 07:41:11;;;;;;;1999.90;999.90;;;;;;;8.48;81.63;102128.53;15814310;28;20041;-63
2021/12/13 07:48:55;;;;;;;1999.90;999.90;;;;;;;8.62;81.57;102135.13;15786902;28;20722;-63
2021/12/13 07:56:41;;;;;;;1999.90;999.90;;;;;;;8.63;81.53;102134.84;15762737;28;20040;-64
2021/12/13 08:04:18;;;;;;;1999.90;999.90;;;;;;;8.63;81.74;102147.91;15776044;28;20040;-64
2021/12/13 08:11:54;;;;;;;1999.90;999.90;;;;;;;8.63;81.50;102147.91;15813155;28;20496;-63
2021/12/13 08:19:34;;;;;;;1999.90;999.90;;;;;;;8.79;81.00;102146.75;15801887;28;20094;-64
2021/12/13 08:27:16;;;;;;;1999.90;999.90;;;;;;;8.76;80.62;102149.28;15730945;28;20374;-64
2021/12/13 08:35:08;;;;;;;1999.90;999.90;;;;;;;8.84;81.07;102159.78;15748414;28;20048;-64
2021/12/13 08:43:05;;;;;;;1999.90;999.90;;;;;;;8.77;81.17;102167.63;15748076;28;20452;-64
2021/12/13 08:50:52;;;;;;;1999.90;999.90;;;;;;;8.80;81.41;102165.09;15746594;28;20472;-63
2021/12/13 08:58:38;;;;;;;1999.90;999.90;;;;;;;8.93;81.09;102170.03;15782871;28;20138;-64
2021/12/13 09:06:39;;;;;;;1999.90;999.90;;;;;;;8.99;81.36;102175.59;15809483;28;20135;-63
2021/12/13 09:14:23;;;;;;;1999.90;999.90;;;;;;;9.00;81.43;102178.09;15809188;28;20195;-62
2021/12/13 09:22:01;;;;;;;1999.90;999.90;;;;;;;9.16;81.35;102176.84;15808806;28;20048;-63
2021/12/13 09:29:50;;;;;;;1999.90;999.90;;;;;;;9.30;81.09;102174.28;15808722;28;20054;-63
2021/12/13 09:37:49;;;;;;;1999.90;999.90;;;;;;;9.40;80.80;102170.59;15792602;28;20040;-65
2021/12/13 09:45:55;;;;;;;1999.90;999.90;;;;;;;9.35;81.34;102182.59;15789670;28;20037;-63
2021/12/13 09:53:46;;;;;;;1999.90;999.90;;;;;;;9.60;80.45;102177.97;15766384;28;20501;-64
2021/12/13 10:01:27;;;;;;;;;;;;;;;9.74;80.31;102181.75;15728847;28;20497;-64
2021/12/13 10:09:27;;;;;;;1999.90;999.90;;;;;;;9.91;80.28;102167.38;15728975;28;19921;-64
2021/12/13 10:17:22;;;;;;;1999.90;999.90;;;;;;;9.97;80.43;102174.56;15746185;28;20054;-64
2021/12/13 10:25:30;;;;;;;1999.90;999.90;;;;;;;9.90;80.89;102186.06;15722747;28;20133;-64
2021/12/13 10:33:24;;;;;;;1999.90;999.90;;;;;;;10.04;80.84;102172.25;15742454;28;20078;-64
2021/12/13 10:41:01;;;;;;;1999.90;999.90;;;;;;;10.23;80.47;102186.31;15723930;28;20540;-63
2021/12/13 10:49:08;;;;;;;1999.90;999.90;;;;;;;10.32;80.47;102171.44;15725417;28;20087;-64
2021/12/13 10:56:56;;;;;;;1999.90;999.90;;;;;;;10.27;81.06;102159.50;15777614;28;20040;-64
2021/12/13 11:04:41;;;;;;;1999.90;999.90;;;;;;;10.38;80.96;102164.66;15786234;28;20135;-63
2021/12/13 11:12:20;;;;;;;1999.90;999.90;;;;;;;10.47;81.50;102166.78;15767817;28;20055;-64
2021/12/13 11:19:57;;;;;;;1999.90;999.90;;;;;;;10.57;81.26;102175.06;15784973;28;20052;-63
2021/12/13 11:28:04;;;;;;;1999.90;999.90;;;;;;;10.75;80.91;102173.44;15802478;28;20411;-64
2021/12/13 11:36:32;;;;;;;1999.90;999.90;;;;;;;10.89;81.12;102175.19;15779638;28;20509;-63
2021/12/13 11:44:54;;;;;;;1999.90;999.90;;;;;;;11.13;80.84;102185.47;15771245;28;20464;-63
2021/12/13 11:53:19;;;;;;;1999.90;999.90;;;;;;;11.30;80.34;102182.16;15765491;28;20036;-64
2021/12/13 12:01:25;;;;;;;;;;;;;;;11.38;80.83;102175.88;15776868;28;20044;-64
2021/12/13 12:09:46;;;;;;;1999.90;999.90;;;;;;;11.50;80.64;102173.47;15738250;28;20297;-65
2021/12/13 12:17:31;;;;;;;1999.90;999.90;;;;;;;11.48;81.06;102170.16;15759435;28;20143;-63
2021/12/13 12:25:11;;;;;;;1999.90;999.90;;;;;;;11.63;80.75;102166.25;15789960;28;20056;-63
2021/12/13 12:32:50;;;;;;;1999.90;999.90;;;;;;;11.73;80.49;102175.31;15811784;28;20048;-63
2021/12/13 12:40:31;;;;;;;1999.90;999.90;;;;;;;11.66;80.59;102169.25;15793410;28;20447;-65
2021/12/13 12:48:33;;;;;;;1999.90;999.90;;;;;;;11.63;80.89;102183.03;15810564;28;20127;-64
2021/12/13 12:56:09;;;;;;;1999.90;999.90;;;;;;;11.68;81.20;102178.19;15753588;28;20139;-65
2021/12/13 13:03:51;;;;;;;1999.90;999.90;;;;;;;11.92;80.96;102180.06;15747717;28;20127;-67
2021/12/13 13:11:35;;;;;;;1999.90;999.90;;;;;;;11.79;81.17;102176.06;15730234;28;20063;-64
2021/12/13 13:19:25;;;;;;;1999.90;999.90;;;;;;;11.91;80.84;102170.00;15729557;28;20060;-64
2021/12/13 13:26:58;;;;;;;1999.90;999.90;;;;;;;11.89;80.90;102173.13;15728139;28;20056;-63
2021/12/13 13:34:39;;;;;;;1999.90;999.90;;;;;;;11.87;81.43;102180.13;15726847;28;20044;-65
2021/12/13 13:42:21;;;;;;;1999.90;999.90;;;;;;;11.88;81.85;102173.41;15726799;28;20044;-64
2021/12/13 13:50:23;;;;;;;1999.90;999.90;;;;;;;11.95;81.37;102197.03;15796872;28;20052;-64
2021/12/13 13:58:22;;;;;;;1999.90;999.90;;;;;;;12.08;81.34;102196.25;15766464;28;20055;-64
2021/12/13 14:06:04;;;;;;;1999.90;999.90;;;;;;;12.03;80.92;102201.94;15735494;28;20048;-64
2021/12/13 14:14:01;;;;;;;1999.90;999.90;;;;;;;11.97;80.88;102214.34;15788380;28;20433;-64
2021/12/13 14:21:58;;;;;;;1999.90;999.90;;;;;;;12.07;81.33;102216.13;15741977;28;20051;-64
2021/12/13 14:29:31;;;;;;;1999.90;999.90;;;;;;;12.06;82.06;102214.47;15748405;28;20044;-64
2021/12/13 14:37:06;;;;;;;1999.90;999.90;;;;;;;12.05;82.54;102218.41;15770210;28;20045;-64
2021/12/13 14:44:49;;;;;;;1999.90;999.90;;;;;;;11.97;83.54;102213.53;15776942;28;20071;-64
2021/12/13 15:00:46;;;;;;;1999.90;999.90;;;;;;;11.98;84.02;102231.97;15737126;28;20044;-63
2021/12/13 15:08:38;;;;;;;1999.90;999.90;;;;;;;12.18;83.53;102234.41;15768222;28;20075;-64
2021/12/13 15:16:27;;;;;;;1999.90;999.90;;;;;;;12.27;83.67;102235.38;15785649;28;20048;-64
2021/12/13 15:24:33;;;;;;;1999.90;999.90;;;;;;;12.04;84.78;102239.16;15795652;28;20044;-63
2021/12/13 15:32:15;;;;;;;1999.90;999.90;;;;;;;11.96;84.69;102239.84;15765573;28;20044;-66
2021/12/13 15:40:11;;;;;;;1999.90;999.90;;;;;;;12.04;85.20;102248.38;15740731;28;20055;-65
2021/12/13 15:55:38;;;;;;;1999.90;999.90;;;;;;;12.01;84.63;102249.00;15784162;28;20044;-66
2021/12/13 16:03:19;;;;;;;1999.90;999.90;;;;;;;12.21;84.48;102259.00;15791810;28;20428;-64
2021/12/13 16:10:53;;;;;;;1999.90;999.90;;;;;;;12.25;84.23;102268.44;15747220;28;20040;-64
2021/12/13 16:18:36;;;;;;;1999.90;999.90;;;;;;;12.22;84.32;102269.06;15797672;28;20052;-65
2021/12/13 16:26:14;;;;;;;1999.90;999.90;;;;;;;12.09;84.58;102281.88;15782421;28;20048;-65
2021/12/13 16:34:09;;;;;;;1999.90;999.90;;;;;;;12.08;84.09;102285.78;15770362;28;20049;-63
2021/12/13 16:41:48;;;;;;;1999.90;999.90;;;;;;;11.94;84.32;102281.28;15778813;28;20044;-64
2021/12/13 16:49:22;;;;;;;1999.90;999.90;;;;;;;12.11;83.65;102276.81;15735151;28;20440;-65
2021/12/13 16:57:00;;;;;;;1999.90;999.90;;;;;;;12.23;82.82;102284.72;15745537;28;20644;-64
2021/12/13 17:04:36;;;;;;;1999.90;999.90;;;;;;;12.18;82.85;102293.19;15748696;28;20097;-64
2021/12/13 17:12:13;;;;;;;1999.90;999.90;;;;;;;12.16;83.02;102300.22;15766288;28;20106;-65
2021/12/13 17:19:48;;;;;;;1999.90;999.90;;;;;;;12.17;82.70;102294.31;15763635;28;20064;-64
2021/12/13 17:27:32;;;;;;;1999.90;999.90;;;;;;;12.14;82.43;102304.16;15740594;28;20032;-63
2021/12/13 17:35:18;;;;;;;1999.90;999.90;;;;;;;12.01;82.44;102299.34;15767408;28;20048;-65
2021/12/13 17:42:55;;;;;;;1999.90;999.90;;;;;;;12.01;82.63;102293.75;15770447;28;20452;-61
2021/12/13 17:50:30;;;;;;;1999.90;999.90;;;;;;;11.84;82.87;102296.25;15768211;28;20446;-63
2021/12/13 17:58:15;;;;;;;1999.90;999.90;;;;;;;11.81;82.78;102294.91;15744057;28;20566;-64
2021/12/13 18:05:53;;;;;;;1999.90;999.90;;;;;;;11.73;83.20;102309.53;15794415;28;20044;-63
2021/12/13 18:13:52;;;;;;;1999.90;999.90;;;;;;;11.63;83.07;102306.06;15749007;28;20047;-63
2021/12/13 18:21:36;;;;;;;1999.90;999.90;;;;;;;11.60;83.43;102303.88;15749253;28;20043;-63
2021/12/13 18:29:13;;;;;;;1999.90;999.90;;;;;;;11.62;83.34;102302.44;15747727;28;20049;-64
2021/12/13 18:36:51;;;;;;;1999.90;999.90;;;;;;;11.51;83.42;102298.94;15770116;28;20044;-62
2021/12/13 18:44:32;;;;;;;1999.90;999.90;;;;;;;11.39;83.54;102300.53;15750455;28;20052;-64
2021/12/13 18:52:19;;;;;;;1999.90;999.90;;;;;;;11.31;83.56;102313.19;15783905;28;20320;-65
2021/12/13 19:00:04;;;;;;;1999.90;999.90;;;;;;;11.29;83.85;102295.91;15757308;28;20127;-64
2021/12/13 19:07:50;;;;;;;1999.90;999.90;;;;;;;11.31;83.41;102310.41;15765243;28;20038;-62
2021/12/13 19:15:36;;;;;;;1999.90;999.90;;;;;;;11.44;82.84;102292.06;15747161;28;20067;-62
2021/12/13 19:23:22;;;;;;;1999.90;999.90;;;;;;;11.42;82.68;102289.56;15712792;28;20082;-60
2021/12/13 19:31:02;;;;;;;1999.90;999.90;;;;;;;11.41;82.12;102304.69;15749586;28;20048;-63
2021/12/13 19:38:39;;;;;;;1999.90;999.90;;;;;;;11.49;82.09;102306.81;15782139;28;20044;-63
2021/12/13 19:46:31;;;;;;;1999.90;999.90;;;;;;;11.36;82.78;102303.91;15788506;28;20048;-64
2021/12/13 19:54:09;;;;;;;1999.90;999.90;;;;;;;11.35;82.22;102305.88;15794473;28;20044;-62
2021/12/13 20:01:54;;;;;;;1999.90;999.90;;;;;;;11.38;82.25;102301.66;15771458;28;20040;-66
2021/12/13 20:09:36;;;;;;;1999.90;999.90;;;;;;;11.42;81.52;102306.34;15768554;28;20036;-62
2021/12/13 20:17:21;;;;;;;1999.90;999.90;;;;;;;11.47;81.00;102305.47;15789726;28;20135;-64
2021/12/13 20:25:01;;;;;;;1999.90;999.90;;;;;;;11.37;81.36;102303.63;15778384;28;20598;-65
2021/12/13 20:32:38;;;;;;;1999.90;999.90;;;;;;;11.31;81.69;102302.03;15770213;28;20097;-64
2021/12/13 20:40:22;;;;;;;1999.90;999.90;;;;;;;11.21;82.28;102302.16;15789799;28;20135;-65
2021/12/13 20:48:02;;;;;;;1999.90;999.90;;;;;;;11.36;81.65;102301.09;15765003;28;20043;-66
2021/12/13 20:55:48;;;;;;;1999.90;999.90;;;;;;;11.40;81.46;102297.44;15754753;28;20106;-64
2021/12/13 21:03:39;;;;;;;1999.90;999.90;;;;;;;11.43;80.79;102302.41;15758291;28;20496;-65
2021/12/13 21:11:16;;;;;;;1999.90;999.90;;;;;;;11.38;80.83;102293.28;15744897;28;20044;-61
2021/12/13 21:18:53;;;;;;;1999.90;999.90;;;;;;;11.34;80.51;102290.25;15821390;22;20105;-77
2021/12/13 21:26:31;;;;;;;1999.90;999.90;;;;;;;11.37;79.65;102291.63;15796334;28;20039;-76
2021/12/13 21:34:17;;;;;;;1999.90;999.90;;;;;;;11.33;80.29;102291.38;15801283;22;20039;-62
2021/12/13 21:41:54;;;;;;;1999.90;999.90;;;;;;;11.30;80.15;102296.75;15789775;28;20101;-65
2021/12/13 21:49:34;;;;;;;1999.90;999.90;;;;;;;11.06;81.08;102294.81;15730650;28;20032;-65
2021/12/13 21:57:16;;;;;;;1999.90;999.90;;;;;;;11.06;80.97;102283.63;15758881;28;20078;-65
2021/12/13 22:04:55;;;;;;;1999.90;999.90;;;;;;;11.09;80.81;102279.41;15774082;28;20123;-60
2021/12/13 22:12:31;;;;;;;1999.90;999.90;;;;;;;11.06;81.24;102264.09;15764655;28;20124;-64
2021/12/13 22:20:10;;;;;;;1999.90;999.90;;;;;;;10.95;81.37;102273.72;15747792;28;20127;-63
2021/12/13 22:27:43;;;;;;;1999.90;999.90;;;;;;;10.87;81.65;102283.56;15759554;28;20358;-65
2021/12/13 22:35:21;;;;;;;1999.90;999.90;;;;;;;10.80;81.38;102287.84;15737660;28;20500;-64
2021/12/13 22:43:00;;;;;;;1999.90;999.90;;;;;;;10.72;81.63;102286.53;15757640;28;20074;-64
2021/12/13 22:50:45;;;;;;;1999.90;999.90;;;;;;;10.72;81.89;102271.75;15760198;28;20044;-64
2021/12/13 22:58:33;;;;;;;1999.90;999.90;;;;;;;10.68;81.57;102275.13;15728576;28;20109;-65
2021/12/13 23:06:15;;;;;;;1999.90;999.90;;;;;;;10.77;81.56;102275.31;15752491;28;20045;-65
2021/12/13 23:14:00;;;;;;;1999.90;999.90;;;;;;;10.86;80.45;102269.91;15782204;28;20032;-65
2021/12/13 23:21:42;;;;;;;1999.90;999.90;;;;;;;10.72;81.53;102260.56;15752981;28;20492;-64
2021/12/13 23:29:22;;;;;;;1999.90;999.90;;;;;;;10.66;81.56;102252.25;15776196;28;20078;-66
2021/12/13 23:37:04;;;;;;;1999.90;999.90;;;;;;;10.78;81.23;102256.59;15800571;28;20040;-66
2021/12/13 23:52:40;;;;;;;1999.90;999.90;;;;;;;10.59;81.54;102234.19;15774538;28;20043;-66
